Susan Ann — WCY5700 — position and weather

sailwx.info

Track history (hours):
 
Tides and Currents Weather Stations Pressure Air Temp Water Temp Dewpoint Dewpoint Depression Visibility Wind Speed Wind Dir Waves Ship Positions

Susan Ann

Owner: CROSS SOUND FERRY SERVICES INC, NEW LONDON, CT. More information available from US FCC via Universal Licensing System and Coast Guard Vessel Documentation Center.

Last reported at 2017-May-22 01:34 UTC. Time now 2017-May-23 12:38 UTC.
Position N 41°17' W 072°05'.

Length 72 m; draft 4 m.

Type: Passenger vessel. MMSI: 367354350.

Date/timePositionNaut miles runAvg speedWind from/ knotsBaromVisibWave heightAir tempDewpointWater temp
2017-May-22 01:34N 41°17' W 072°05'114.9
2017-May-22 01:30N 41°16' W 072°06'815.3
2017-May-22 01:00N 41°11' W 072°13'1 0.6
2017-May-22 00:10N 41°10' W 072°13'212.4
2017-May-22 00:01N 41°12' W 072°13'814.0
2017-May-21 23:27N 41°18' W 072°05'2 1.3
2017-May-21 21:53N 41°16' W 072°07'512.0
2017-May-21 21:30N 41°13' W 072°11'1 0.9
2017-May-21 19:58N 41°12' W 072°13'1 0.2
2017-May-21 16:03N 41°12' W 072°12'7 3.3
2017-May-21 13:56N 41°17' W 072°06'7 3.5
2017-May-21 11:57N 41°12' W 072°13'7 0.6
2017-May-20 23:55N 41°17' W 072°06'613.8
2017-May-20 23:28N 41°13' W 072°11'1 1.0
2017-May-20 22:05N 41°12' W 072°13'214.8
2017-May-20 21:58N 41°13' W 072°11'1 0.5
2017-May-20 19:39N 41°14' W 072°10'4 0.2
2017-May-20 00:08N 41°10' W 072°13'111.2
2017-May-20 00:00N 41°12' W 072°13'5 2.5
2017-May-19 21:48N 41°15' W 072°08'5 2.8
2017-May-19 19:58N 41°12' W 072°13'  
2017-May-15 01:41N 41°17' W 072°06'212.9
2017-May-15 01:31N 41°15' W 072°07'713.0
2017-May-15 01:00N 41°11' W 072°13'2 3.1
2017-May-15 00:28N 41°09' W 072°14'3 5.8
2017-May-15 00:00N 41°12' W 072°13'7 3.5
2017-May-14 21:58N 41°16' W 072°06'1 0.0
2017-May-13 23:55N 41°17' W 072°06'512.3
2017-May-13 23:30N 41°14' W 072°12'2 1.2
2017-May-13 22:05N 41°12' W 072°12'211.6
2017-May-13 21:55N 41°13' W 072°11'0 0.0
2017-May-13 13:46N 41°13' W 072°11'4 0.3
2017-May-13 00:10N 41°09' W 072°13'210.7
2017-May-13 00:00N 41°11' W 072°13'613.2
2017-May-12 23:30N 41°16' W 072°07'6 1.6
2017-May-12 20:04N 41°12' W 072°12'211.1
2017-May-12 19:54N 41°13' W 072°11'0 0.1
2017-May-12 15:50N 41°13' W 072°11'  
Track history (hours):
 
Tides and Currents Weather Stations Pressure Air Temp Water Temp Dewpoint Dewpoint Depression Visibility Wind Speed Wind Dir Waves Ship Positions

Susan Ann

Owner: CROSS SOUND FERRY SERVICES INC, NEW LONDON, CT. More information available from US FCC via Universal Licensing System and Coast Guard Vessel Documentation Center.

Last reported at 2017-May-22 01:34 UTC. Time now 2017-May-23 12:38 UTC.
Position N 41°17' W 072°05'.

Length 72 m; draft 4 m.

Type: Passenger vessel. MMSI: 367354350.

Date/timePositionNaut miles runAvg speedWind from/ knotsBaromVisibWave heightAir tempDewpointWater temp
2017-May-22 01:34N 41°17' W 072°05'114.9
2017-May-22 01:30N 41°16' W 072°06'815.3
2017-May-22 01:00N 41°11' W 072°13'1 0.6
2017-May-22 00:10N 41°10' W 072°13'212.4
2017-May-22 00:01N 41°12' W 072°13'814.0
2017-May-21 23:27N 41°18' W 072°05'2 1.3
2017-May-21 21:53N 41°16' W 072°07'512.0
2017-May-21 21:30N 41°13' W 072°11'1 0.9
2017-May-21 19:58N 41°12' W 072°13'1 0.2
2017-May-21 16:03N 41°12' W 072°12'7 3.3
2017-May-21 13:56N 41°17' W 072°06'7 3.5
2017-May-21 11:57N 41°12' W 072°13'7 0.6
2017-May-20 23:55N 41°17' W 072°06'613.8
2017-May-20 23:28N 41°13' W 072°11'1 1.0
2017-May-20 22:05N 41°12' W 072°13'214.8
2017-May-20 21:58N 41°13' W 072°11'1 0.5
2017-May-20 19:39N 41°14' W 072°10'4 0.2
2017-May-20 00:08N 41°10' W 072°13'111.2
2017-May-20 00:00N 41°12' W 072°13'5 2.5
2017-May-19 21:48N 41°15' W 072°08'5 2.8
2017-May-19 19:58N 41°12' W 072°13'  
2017-May-15 01:41N 41°17' W 072°06'212.9
2017-May-15 01:31N 41°15' W 072°07'713.0
2017-May-15 01:00N 41°11' W 072°13'2 3.1
2017-May-15 00:28N 41°09' W 072°14'3 5.8
2017-May-15 00:00N 41°12' W 072°13'7 3.5
2017-May-14 21:58N 41°16' W 072°06'1 0.0
2017-May-13 23:55N 41°17' W 072°06'512.3
2017-May-13 23:30N 41°14' W 072°12'2 1.2
2017-May-13 22:05N 41°12' W 072°12'211.6
2017-May-13 21:55N 41°13' W 072°11'0 0.0
2017-May-13 13:46N 41°13' W 072°11'4 0.3
2017-May-13 00:10N 41°09' W 072°13'210.7
2017-May-13 00:00N 41°11' W 072°13'613.2
2017-May-12 23:30N 41°16' W 072°07'6 1.6
2017-May-12 20:04N 41°12' W 072°12'211.1
2017-May-12 19:54N 41°13' W 072°11'0 0.1
2017-May-12 15:50N 41°13' W 072°11'  

Dump ship's entire track history